Time;durP1;ratioP1;P1;durP2;ratioP2;P2;SDS_P1;SDS_P2;PMS_P1;PMS_P2;Temp;Humidity;BMP_temperature;BMP_pressure;BME280_temperature;BME280_humidity;BME280_pressure;Samples;Min_cycle;Max_cycle;Signal;HPM_P1;HPM_P2
2022/09/17 00:00:16;;;;;;;4.30;0.30;;;11.10;99.90;;;;;;4997012;28;20614;-73
2022/09/17 00:02:43;;;;;;;8.10;0.85;;;11.10;99.90;;;;;;5015722;28;20026;-73
2022/09/17 00:05:09;;;;;;;4.75;0.32;;;11.00;99.90;;;;;;4996927;28;20523;-73
2022/09/17 00:07:35;;;;;;;4.05;0.52;;;11.00;99.90;;;;;;5014669;28;20053;-73
2022/09/17 00:10:00;;;;;;;4.97;1.20;;;10.90;99.90;;;;;;5014076;28;20468;-73
2022/09/17 00:12:26;;;;;;;8.60;0.57;;;10.80;99.90;;;;;;5014576;28;20510;-74
2022/09/17 00:14:52;;;;;;;7.80;0.52;;;10.80;99.90;;;;;;5014161;28;20026;-73
2022/09/17 00:17:17;;;;;;;3.88;0.10;;;10.70;99.90;;;;;;4996776;28;20029;-73
2022/09/17 00:19:43;;;;;;;4.00;0.52;;;10.60;99.90;;;;;;4996809;28;20030;-74
2022/09/17 00:22:08;;;;;;;5.80;0.35;;;10.50;99.90;;;;;;5014282;28;20029;-74
2022/09/17 00:24:34;;;;;;;2.40;0.00;;;10.50;99.90;;;;;;4996688;28;20092;-74
2022/09/17 00:27:00;;;;;;;5.72;0.05;;;10.50;99.90;;;;;;5014137;28;20550;-74
2022/09/17 00:29:25;;;;;;;6.65;0.68;;;10.50;99.90;;;;;;5014322;28;20022;-74
2022/09/17 00:31:51;;;;;;;7.57;0.32;;;10.50;99.90;;;;;;5014083;28;20065;-74
2022/09/17 00:34:16;;;;;;;8.70;0.00;;;10.60;99.90;;;;;;5014367;28;20022;-74
2022/09/17 00:36:42;;;;;;;8.20;0.90;;;10.60;99.90;;;;;;5014163;28;20044;-74
2022/09/17 00:39:10;;;;;;;4.30;0.10;;;10.70;99.90;;;;;;4996414;28;20037;-74
2022/09/17 00:41:37;;;;;;;12.68;0.85;;;10.70;99.90;;;;;;5014048;28;20363;-74
2022/09/17 00:44:40;;;;;;;3.50;0.15;;;10.70;99.90;;;;;;5014220;28;20036;-74
2022/09/17 00:47:19;;;;;;;5.47;0.17;;;10.70;99.90;;;;;;5014528;28;20066;-74
2022/09/17 00:49:46;;;;;;;6.10;0.00;;;10.70;99.90;;;;;;4996494;28;20546;-74
2022/09/17 00:52:18;;;;;;;4.13;0.10;;;10.60;99.90;;;;;;5014133;28;20502;-73
2022/09/17 00:55:11;;;;;;;15.13;0.32;;;10.60;99.90;;;;;;4996248;28;20018;-73
2022/09/17 00:57:38;;;;;;;4.03;0.10;;;10.50;99.90;;;;;;5003606;28;20046;-73
2022/09/17 01:00:05;;;;;;;7.63;1.02;;;10.50;99.90;;;;;;5013726;28;20033;-74
2022/09/17 01:02:31;;;;;;;14.27;0.52;;;10.50;99.90;;;;;;5014236;28;20026;-74
2022/09/17 01:04:57;;;;;;;2.53;0.20;;;10.40;99.90;;;;;;5013820;28;20016;-74
2022/09/17 01:07:43;;;;;;;4.50;0.13;;;10.40;99.90;;;;;;5013577;28;20021;-74
2022/09/17 01:10:47;;;;;;;5.13;0.55;;;10.30;99.90;;;;;;4996622;28;20048;-74
2022/09/17 01:13:27;;;;;;;5.07;0.05;;;10.20;99.90;;;;;;4996363;28;20030;-74
2022/09/17 01:16:04;;;;;;;8.13;0.90;;;10.10;99.90;;;;;;5013570;28;20030;-74
2022/09/17 01:19:21;;;;;;;8.00;0.68;;;10.10;99.90;;;;;;5013795;28;20475;-74
2022/09/17 01:22:25;;;;;;;5.22;0.30;;;10.10;99.90;;;;;;4955855;28;20045;-74
2022/09/17 01:25:23;;;;;;;10.38;0.40;;;10.00;99.90;;;;;;4995221;28;20045;-74
2022/09/17 01:28:21;;;;;;;3.58;0.00;;;10.00;99.90;;;;;;5013951;28;20033;-73
2022/09/17 01:31:47;;;;;;;9.52;0.32;;;10.00;99.90;;;;;;4995804;28;20487;-74
2022/09/17 01:34:40;;;;;;;10.48;0.47;;;10.00;99.90;;;;;;4918068;29;20059;-73
2022/09/17 01:37:18;;;;;;;4.68;0.60;;;10.00;99.90;;;;;;5013491;28;20030;-73
2022/09/17 01:39:56;;;;;;;6.20;0.00;;;10.10;99.90;;;;;;5013430;28;20104;-72
2022/09/17 01:42:24;;;;;;;4.55;0.15;;;10.30;99.90;;;;;;5013696;28;20498;-73
2022/09/17 01:45:10;;;;;;;5.65;0.80;;;10.50;99.90;;;;;;4995726;28;20022;-73
2022/09/17 01:47:40;;;;;;;4.18;0.98;;;10.50;99.90;;;;;;5013134;28;20487;-74
2022/09/17 01:50:11;;;;;;;4.25;0.55;;;10.60;99.90;;;;;;5013788;28;20018;-74
2022/09/17 01:52:40;;;;;;;3.60;0.32;;;10.60;99.90;;;;;;5013144;28;20042;-74
2022/09/17 01:55:13;;;;;;;2.22;0.00;;;10.70;99.90;;;;;;5013651;28;20521;-74
2022/09/17 01:57:39;;;;;;;5.32;0.38;;;10.70;99.90;;;;;;4995627;28;20026;-74
2022/09/17 02:00:14;;;;;;;4.28;0.10;;;10.80;99.90;;;;;;5013209;28;20037;-73
2022/09/17 02:02:55;;;;;;;11.35;1.30;;;10.80;99.90;;;;;;4996645;28;20018;-73
2022/09/17 02:05:53;;;;;;;6.65;0.00;;;10.80;99.90;;;;;;5013058;28;20049;-73
2022/09/17 02:08:25;;;;;;;8.93;0.03;;;10.70;99.90;;;;;;5012987;28;20018;-73
2022/09/17 02:11:08;;;;;;;8.60;0.13;;;10.80;99.90;;;;;;5014519;28;20068;-74
2022/09/17 02:13:58;;;;;;;5.05;0.10;;;10.70;99.90;;;;;;5017091;28;20090;-74
2022/09/17 02:16:29;;;;;;;2.63;0.73;;;10.70;99.90;;;;;;4998720;28;20034;-73
2022/09/17 02:19:01;;;;;;;6.93;0.00;;;10.60;99.90;;;;;;5016662;28;20380;-73
2022/09/17 02:21:53;;;;;;;2.90;0.32;;;10.50;99.90;;;;;;5016576;28;20506;-73
2022/09/17 02:24:30;;;;;;;6.70;0.00;;;10.50;99.90;;;;;;5016511;28;20084;-73
2022/09/17 02:27:20;;;;;;;3.03;0.00;;;10.50;99.90;;;;;;5016368;28;20025;-73
2022/09/17 02:29:45;;;;;;;5.00;0.13;;;10.40;99.90;;;;;;5016890;28;20029;-73
2022/09/17 02:32:12;;;;;;;7.68;1.20;;;10.40;99.90;;;;;;5016310;28;20022;-73
2022/09/17 02:34:38;;;;;;;2.25;0.13;;;10.40;99.90;;;;;;5016132;28;20026;-73
2022/09/17 02:37:05;;;;;;;2.83;0.00;;;10.40;99.90;;;;;;5016506;28;20525;-73
2022/09/17 02:39:30;;;;;;;6.78;0.57;;;10.40;99.90;;;;;;5016205;28;20025;-73
2022/09/17 02:42:32;;;;;;;4.70;0.65;;;10.30;99.90;;;;;;5016497;28;20033;-73
2022/09/17 02:45:12;;;;;;;4.50;0.28;;;10.30;99.90;;;;;;5017016;28;20088;-73
2022/09/17 02:48:03;;;;;;;4.25;0.10;;;10.30;99.90;;;;;;5016004;28;20360;-73
2022/09/17 02:50:46;;;;;;;11.45;0.47;;;10.30;99.90;;;;;;5016065;28;20030;-74
2022/09/17 02:53:34;;;;;;;6.45;1.15;;;10.40;99.90;;;;;;4998324;28;20026;-74
2022/09/17 02:56:06;;;;;;;5.55;0.13;;;10.40;99.90;;;;;;5016417;28;20029;-74
2022/09/17 02:58:37;;;;;;;6.05;0.57;;;10.40;99.90;;;;;;5016460;28;20057;-74
2022/09/17 03:01:11;;;;;;;3.45;0.47;;;10.40;99.90;;;;;;4998283;28;20022;-73
2022/09/17 03:03:41;;;;;;;10.70;0.98;;;10.40;99.90;;;;;;5016557;28;20026;-75
2022/09/17 03:06:07;;;;;;;8.25;0.30;;;10.40;99.90;;;;;;4998415;28;20022;-75
2022/09/17 03:08:39;;;;;;;6.53;0.30;;;10.50;99.90;;;;;;5016249;28;20121;-75
2022/09/17 03:11:07;;;;;;;5.60;0.13;;;10.50;99.90;;;;;;5015594;28;20018;-75
2022/09/17 03:13:35;;;;;;;3.90;0.05;;;10.60;99.90;;;;;;4998070;28;20447;-75
2022/09/17 03:16:04;;;;;;;6.03;0.13;;;10.70;99.90;;;;;;4997806;28;20479;-75
2022/09/17 03:18:30;;;;;;;6.18;0.00;;;10.50;99.90;;;;;;5015536;28;20034;-75
2022/09/17 03:20:56;;;;;;;6.38;0.00;;;10.40;99.90;;;;;;5015483;28;20026;-75
2022/09/17 03:23:22;;;;;;;7.60;0.93;;;10.40;99.90;;;;;;4997797;28;20129;-75
2022/09/17 03:25:50;;;;;;;7.25;0.20;;;10.30;99.90;;;;;;5015287;28;20029;-75
2022/09/17 03:28:16;;;;;;;12.20;0.30;;;10.20;99.90;;;;;;5015205;28;20446;-75
2022/09/17 03:30:43;;;;;;;3.38;0.45;;;10.20;99.90;;;;;;5015599;28;20023;-75
2022/09/17 03:33:09;;;;;;;4.20;0.00;;;10.10;99.90;;;;;;5015404;28;20040;-75
2022/09/17 03:35:34;;;;;;;5.30;0.25;;;10.00;99.90;;;;;;5015793;28;20034;-76
2022/09/17 03:38:00;;;;;;;3.97;0.10;;;9.90;99.90;;;;;;5015703;28;20030;-75
2022/09/17 03:40:26;;;;;;;4.95;0.05;;;10.00;99.90;;;;;;4997475;28;20491;-75
2022/09/17 03:42:52;;;;;;;6.75;0.40;;;9.80;99.90;;;;;;5015133;28;20364;-75
2022/09/17 03:45:17;;;;;;;3.40;0.10;;;9.70;99.90;;;;;;5014910;28;20061;-76
2022/09/17 03:47:43;;;;;;;2.40;0.00;;;9.70;99.90;;;;;;5014826;28;20026;-76
2022/09/17 03:50:09;;;;;;;2.85;0.80;;;9.60;99.90;;;;;;5015513;28;20018;-76
2022/09/17 03:52:35;;;;;;;6.40;0.10;;;9.60;99.90;;;;;;5014778;28;20028;-76
2022/09/17 03:55:01;;;;;;;2.15;0.00;;;9.50;99.90;;;;;;5014743;28;20022;-76
2022/09/17 03:57:26;;;;;;;6.00;0.57;;;9.50;99.90;;;;;;4997184;28;20109;-76
2022/09/17 03:59:52;;;;;;;1.17;0.00;;;9.40;99.90;;;;;;5014763;28;20101;-76
2022/09/17 04:02:17;;;;;;;6.75;0.30;;;9.50;99.90;;;;;;4997241;28;20018;-76
2022/09/17 04:04:43;;;;;;;4.85;0.52;;;9.80;99.90;;;;;;4997413;28;20014;-76
2022/09/17 04:07:09;;;;;;;2.42;0.00;;;9.90;99.90;;;;;;5014623;28;20021;-76
2022/09/17 04:09:34;;;;;;;3.70;0.00;;;9.90;99.90;;;;;;5014564;28;20434;-76
2022/09/17 04:12:00;;;;;;;5.45;0.08;;;9.90;99.90;;;;;;5014549;28;20022;-76
2022/09/17 04:14:25;;;;;;;4.60;0.10;;;9.90;99.90;;;;;;4996857;28;20395;-76
2022/09/17 04:16:51;;;;;;;4.80;0.05;;;9.90;99.90;;;;;;4996777;28;20018;-76
2022/09/17 04:19:17;;;;;;;8.70;0.00;;;9.90;99.90;;;;;;5015012;28;20507;-76
2022/09/17 04:21:43;;;;;;;4.25;0.45;;;9.80;99.90;;;;;;5014374;28;20034;-76
2022/09/17 04:24:08;;;;;;;5.65;0.00;;;9.80;99.90;;;;;;5014405;28;20387;-76
2022/09/17 04:26:34;;;;;;;4.32;0.00;;;9.70;99.90;;;;;;5014227;28;20052;-76
2022/09/17 04:29:00;;;;;;;4.00;0.20;;;9.70;99.90;;;;;;5014188;28;20026;-75
2022/09/17 04:31:26;;;;;;;3.20;0.10;;;9.60;99.90;;;;;;5014253;28;20018;-75
2022/09/17 04:33:52;;;;;;;2.92;0.00;;;9.60;99.90;;;;;;4996198;28;20541;-76
2022/09/17 04:36:18;;;;;;;3.78;0.20;;;9.60;99.90;;;;;;4996478;28;20033;-76
2022/09/17 04:38:46;;;;;;;4.20;0.28;;;9.40;99.90;;;;;;4996499;28;20022;-76
2022/09/17 04:41:11;;;;;;;1.92;0.10;;;9.50;99.90;;;;;;5014069;28;20028;-75
2022/09/17 04:43:37;;;;;;;5.90;0.30;;;9.40;99.90;;;;;;5014052;28;20033;-76
2022/09/17 04:46:03;;;;;;;4.20;0.00;;;9.40;99.90;;;;;;4996423;28;20030;-75
2022/09/17 04:48:29;;;;;;;3.45;0.28;;;9.40;99.90;;;;;;5013849;28;20026;-76
2022/09/17 04:50:54;;;;;;;7.93;0.00;;;9.30;99.90;;;;;;4996319;28;20025;-75
2022/09/17 04:53:20;;;;;;;3.35;0.85;;;9.30;99.90;;;;;;5014130;28;20029;-76
2022/09/17 04:55:45;;;;;;;6.18;0.00;;;9.20;99.90;;;;;;5014122;28;20068;-76
2022/09/17 04:58:11;;;;;;;4.47;0.20;;;9.20;99.90;;;;;;5014215;28;20025;-76
2022/09/17 05:00:36;;;;;;;3.92;0.15;;;9.20;99.90;;;;;;5014721;28;20030;-76
2022/09/17 05:03:02;;;;;;;2.78;0.00;;;9.20;99.90;;;;;;4996534;28;20491;-76
2022/09/17 05:05:28;;;;;;;0.03;0.00;;;9.20;99.90;;;;;;5014003;28;20025;-75
2022/09/17 05:07:54;;;;;;;1.48;0.00;;;9.10;99.90;;;;;;5014171;28;20113;-75
2022/09/17 05:10:21;;;;;;;3.10;0.30;;;9.20;99.90;;;;;;5014167;28;20060;-75
2022/09/17 05:12:51;;;;;;;5.43;0.13;;;9.20;99.90;;;;;;4996060;28;20018;-76
2022/09/17 05:15:18;;;;;;;1.27;0.17;;;9.20;99.90;;;;;;5027606;23;20052;-74
2022/09/17 05:17:44;;;;;;;4.07;0.00;;;9.30;99.90;;;;;;5015659;28;20528;-74
2022/09/17 05:20:11;;;;;;;3.60;0.25;;;9.20;99.90;;;;;;5033288;28;20045;-74
2022/09/17 05:22:42;;;;;;;3.20;0.00;;;9.30;99.90;;;;;;5033450;28;20514;-74
2022/09/17 05:25:08;;;;;;;2.17;0.10;;;9.30;99.90;;;;;;5033192;28;20021;-74
2022/09/17 05:27:33;;;;;;;1.80;0.00;;;9.40;99.90;;;;;;5033027;28;20541;-73
2022/09/17 05:29:59;;;;;;;2.45;0.00;;;9.50;99.90;;;;;;5033180;28;20025;-74
2022/09/17 05:32:24;;;;;;;4.50;0.47;;;9.60;99.90;;;;;;5033495;28;20076;-74
2022/09/17 05:34:50;;;;;;;3.30;0.00;;;9.60;99.90;;;;;;5033403;28;20520;-74
2022/09/17 05:37:15;;;;;;;5.05;0.17;;;9.80;99.90;;;;;;5033070;28;20021;-74
2022/09/17 05:39:41;;;;;;;5.20;0.10;;;9.90;99.90;;;;;;5033109;28;20390;-74
2022/09/17 05:42:07;;;;;;;0.77;0.00;;;10.00;99.90;;;;;;5033132;28;20024;-74
2022/09/17 05:44:32;;;;;;;6.55;0.17;;;10.10;99.90;;;;;;5033049;28;20033;-74
2022/09/17 05:46:58;;;;;;;2.40;0.00;;;10.20;99.90;;;;;;5036123;28;20025;-74
2022/09/17 05:49:23;;;;;;;2.90;0.22;;;10.40;99.90;;;;;;5037531;28;20025;-74
2022/09/17 05:51:50;;;;;;;3.47;0.32;;;10.50;99.90;;;;;;5036927;28;20467;-74
2022/09/17 05:54:16;;;;;;;3.10;0.55;;;10.50;99.90;;;;;;5019070;28;20386;-74
2022/09/17 05:56:41;;;;;;;2.85;0.00;;;10.60;99.90;;;;;;5018957;28;20104;-73
2022/09/17 05:59:07;;;;;;;3.70;0.20;;;10.60;99.90;;;;;;5037109;28;20071;-73
2022/09/17 06:01:36;;;;;;;8.10;0.10;;;10.70;99.90;;;;;;5036966;28;20505;-73
2022/09/17 06:04:02;;;;;;;0.43;0.00;;;10.70;99.90;;;;;;5037396;28;20033;-73
2022/09/17 06:06:29;;;;;;;1.60;0.32;;;10.70;99.90;;;;;;5036637;28;20534;-73
2022/09/17 06:08:54;;;;;;;3.40;0.52;;;10.70;99.90;;;;;;5018795;28;20394;-73
2022/09/17 06:11:20;;;;;;;1.65;0.10;;;10.70;99.90;;;;;;5018852;28;20021;-74
2022/09/17 06:13:45;;;;;;;0.82;0.05;;;10.70;99.90;;;;;;5036487;28;20088;-73
2022/09/17 06:16:20;;;;;;;3.50;0.08;;;10.70;99.90;;;;;;5036370;28;20040;-75
2022/09/17 06:18:46;;;;;;;4.25;0.10;;;10.70;99.90;;;;;;5037086;28;20413;-73
2022/09/17 06:21:11;;;;;;;0.68;0.00;;;10.70;99.90;;;;;;5036368;28;20025;-73
2022/09/17 06:23:37;;;;;;;4.65;0.10;;;10.70;99.90;;;;;;5036900;28;20033;-73
2022/09/17 06:26:04;;;;;;;0.55;0.30;;;10.80;99.90;;;;;;5036166;28;20517;-73
2022/09/17 06:28:31;;;;;;;6.05;0.47;;;10.80;99.90;;;;;;5036757;28;20493;-73
2022/09/17 06:31:00;;;;;;;0.95;0.00;;;10.90;99.90;;;;;;5036349;28;20363;-73
2022/09/17 06:33:26;;;;;;;1.65;0.00;;;11.00;99.90;;;;;;5035980;28;20091;-73
2022/09/17 06:35:59;;;;;;;2.38;0.00;;;11.10;99.90;;;;;;5035975;28;20014;-73
2022/09/17 06:38:24;;;;;;;5.38;0.00;;;11.20;99.90;;;;;;5036276;28;20040;-73
2022/09/17 06:40:51;;;;;;;1.98;0.00;;;11.20;99.90;;;;;;5036585;28;20100;-73
2022/09/17 06:43:18;;;;;;;4.57;0.20;;;11.10;99.90;;;;;;5035960;28;20029;-73
2022/09/17 06:45:49;;;;;;;2.30;0.10;;;11.10;99.90;;;;;;5036374;28;20030;-73
2022/09/17 06:48:15;;;;;;;4.13;0.00;;;11.10;99.90;;;;;;5036116;28;20372;-73
2022/09/17 06:50:40;;;;;;;3.15;0.00;;;11.10;99.90;;;;;;5035782;28;20068;-73
2022/09/17 06:53:06;;;;;;;4.47;0.00;;;11.30;99.90;;;;;;5035750;28;20079;-73
2022/09/17 06:55:32;;;;;;;2.53;0.00;;;11.40;99.90;;;;;;5035875;28;20026;-73
2022/09/17 06:57:59;;;;;;;2.65;0.08;;;11.50;99.90;;;;;;5035298;28;20036;-73
2022/09/17 07:00:24;;;;;;;2.65;0.00;;;11.70;99.90;;;;;;5035930;28;20163;-75
2022/09/17 07:03:00;;;;;;;1.58;0.00;;;12.00;99.90;;;;;;5017587;28;20125;-72
2022/09/17 07:05:27;;;;;;;5.07;0.00;;;12.20;99.90;;;;;;5035199;28;20029;-73
2022/09/17 07:07:54;;;;;;;4.80;0.70;;;12.30;99.90;;;;;;5017515;28;20072;-73
2022/09/17 07:10:22;;;;;;;1.42;0.00;;;12.30;99.90;;;;;;5035398;28;20105;-74
2022/09/17 07:12:48;;;;;;;2.50;0.00;;;12.30;99.90;;;;;;5035338;28;20385;-74
2022/09/17 07:15:14;;;;;;;4.40;0.00;;;12.30;99.90;;;;;;5017393;28;20033;-74
2022/09/17 07:17:41;;;;;;;3.35;0.05;;;12.10;99.90;;;;;;5035346;28;20026;-74
2022/09/17 07:20:08;;;;;;;3.22;0.00;;;12.10;99.90;;;;;;5017314;28;20021;-75
2022/09/17 07:22:34;;;;;;;4.03;0.00;;;12.10;99.90;;;;;;5035647;28;20370;-75
2022/09/17 07:24:59;;;;;;;3.08;0.30;;;12.20;99.90;;;;;;5017132;28;20021;-75
2022/09/17 07:27:29;;;;;;;1.35;0.00;;;10.90;99.90;;;;;;5034915;28;20029;-75
2022/09/17 07:29:55;;;;;;;4.50;0.00;;;12.50;99.90;;;;;;5034806;28;20029;-75
2022/09/17 07:32:21;;;;;;;5.63;0.20;;;12.70;99.90;;;;;;5034883;28;20014;-75
2022/09/17 07:34:48;;;;;;;1.08;0.00;;;13.00;99.90;;;;;;5034789;28;20371;-75
2022/09/17 07:37:14;;;;;;;3.33;0.25;;;13.20;99.90;;;;;;5034642;28;20364;-75
2022/09/17 07:39:41;;;;;;;3.80;0.35;;;13.40;99.90;;;;;;5016908;28;20100;-75
2022/09/17 07:42:07;;;;;;;3.30;0.00;;;13.40;99.90;;;;;;5034677;28;20029;-75
2022/09/17 07:44:33;;;;;;;5.32;0.00;;;13.40;99.90;;;;;;5034714;28;20080;-75
2022/09/17 07:46:59;;;;;;;3.10;0.20;;;13.40;99.90;;;;;;5034541;28;20029;-75
2022/09/17 07:49:25;;;;;;;2.03;0.00;;;13.50;99.90;;;;;;5034619;28;20113;-75
2022/09/17 07:51:51;;;;;;;7.95;0.20;;;13.60;99.90;;;;;;5034336;28;20418;-73
2022/09/17 07:54:16;;;;;;;1.13;0.00;;;13.80;99.90;;;;;;5034892;28;20072;-73
2022/09/17 07:56:45;;;;;;;5.18;0.30;;;14.00;99.90;;;;;;5034358;28;20029;-73
2022/09/17 07:59:11;;;;;;;3.88;0.00;;;14.30;99.90;;;;;;5034409;28;20526;-73
2022/09/17 08:01:36;;;;;;;9.50;0.10;;;14.60;99.90;;;;;;5034232;28;20063;-73
2022/09/17 08:04:02;;;;;;;2.95;0.10;;;14.70;99.90;;;;;;5034259;28;20437;-73
2022/09/17 08:06:28;;;;;;;6.75;0.35;;;14.80;99.90;;;;;;5034256;28;20116;-73
2022/09/17 08:08:56;;;;;;;1.33;0.10;;;14.80;99.90;;;;;;5033292;28;20017;-73
2022/09/17 08:11:24;;;;;;;5.28;0.17;;;14.90;99.90;;;;;;5034417;28;20364;-73
2022/09/17 08:13:51;;;;;;;2.23;0.00;;;15.00;99.90;;;;;;5034645;28;20122;-73
2022/09/17 08:16:17;;;;;;;3.08;0.20;;;15.10;99.90;;;;;;5033714;28;20498;-73
2022/09/17 08:18:44;;;;;;;1.40;0.00;;;15.20;99.90;;;;;;5034280;28;20093;-73
2022/09/17 08:21:11;;;;;;;1.52;0.30;;;15.30;99.90;;;;;;5016222;28;20081;-73
2022/09/17 08:23:38;;;;;;;2.58;0.00;;;15.40;99.90;;;;;;5033910;28;20031;-73
2022/09/17 08:26:08;;;;;;;1.83;0.00;;;15.50;99.90;;;;;;5033722;28;20035;-73
2022/09/17 08:28:34;;;;;;;1.55;0.00;;;15.60;99.90;;;;;;5033755;28;20033;-73
2022/09/17 08:31:05;;;;;;;2.10;0.20;;;15.70;99.90;;;;;;5034327;28;20482;-74
2022/09/17 08:33:32;;;;;;;2.95;0.00;;;15.70;99.90;;;;;;5015927;28;20018;-73
2022/09/17 08:35:58;;;;;;;2.03;0.00;;;15.60;99.90;;;;;;5033636;28;20021;-73
2022/09/17 08:38:26;;;;;;;1.58;0.08;;;15.30;99.90;;;;;;5033704;28;20043;-73
2022/09/17 08:41:11;;;;;;;4.22;0.55;;;15.00;99.90;;;;;;5033551;28;20017;-73
2022/09/17 08:43:48;;;;;;;1.08;0.00;;;14.60;99.90;;;;;;5034003;28;20034;-73
2022/09/17 08:46:14;;;;;;;4.47;0.00;;;14.40;99.90;;;;;;5033690;28;20036;-72
2022/09/17 08:48:55;;;;;;;2.35;0.00;;;14.20;99.90;;;;;;5015676;28;20514;-72
2022/09/17 08:51:31;;;;;;;3.40;0.00;;;13.90;99.90;;;;;;5033466;28;20367;-74
2022/09/17 08:54:16;;;;;;;1.02;0.03;;;13.70;99.90;;;;;;5033336;28;20017;-72
2022/09/17 08:56:45;;;;;;;1.77;0.03;;;13.50;99.90;;;;;;5034035;28;20488;-72
2022/09/17 08:59:39;;;;;;;0.85;0.00;;;13.50;99.90;;;;;;5033231;28;20057;-72
2022/09/17 09:02:31;;;;;;;1.48;0.00;;;13.60;99.90;;;;;;5025251;28;20111;-73
2022/09/17 09:04:57;;;;;;;1.95;0.00;;;13.70;99.90;;;;;;5033319;28;20033;-74
2022/09/17 09:07:36;;;;;;;1.80;0.00;;;13.80;99.90;;;;;;5015447;28;20521;-73
2022/09/17 09:10:13;;;;;;;3.00;0.05;;;13.90;99.90;;;;;;5033458;28;20049;-74
2022/09/17 09:12:40;;;;;;;4.35;0.20;;;14.10;99.90;;;;;;5033447;28;20350;-75
2022/09/17 09:15:22;;;;;;;0.82;0.00;;;14.20;99.90;;;;;;5032795;28;20068;-74
2022/09/17 09:17:50;;;;;;;3.42;0.00;;;14.20;99.90;;;;;;5033012;28;20104;-73
2022/09/17 09:20:32;;;;;;;6.72;0.52;;;14.00;99.90;;;;;;5015230;28;20028;-73
2022/09/17 09:23:09;;;;;;;1.65;0.25;;;13.90;99.90;;;;;;5033490;28;20072;-73
2022/09/17 09:25:45;;;;;;;1.48;0.00;;;13.80;99.90;;;;;;5033516;28;20072;-73
2022/09/17 09:28:30;;;;;;;3.08;0.17;;;13.80;99.90;;;;;;5032942;28;20025;-73
2022/09/17 09:31:24;;;;;;;2.58;0.30;;;13.90;99.90;;;;;;5033331;28;20076;-73
2022/09/17 09:33:51;;;;;;;0.77;0.10;;;14.20;99.90;;;;;;5015154;28;20029;-73
2022/09/17 09:36:20;;;;;;;1.30;0.00;;;14.40;99.90;;;;;;5032748;28;20033;-73
2022/09/17 09:39:00;;;;;;;4.22;0.10;;;14.60;99.90;;;;;;5015246;28;20045;-73
2022/09/17 09:41:45;;;;;;;1.55;0.00;;;14.70;99.90;;;;;;5032851;28;20489;-73
2022/09/17 09:44:13;;;;;;;3.28;0.00;;;14.90;99.90;;;;;;5032714;28;20022;-73
2022/09/17 09:47:02;;;;;;;1.55;0.00;;;15.10;99.90;;;;;;5032646;28;20095;-73
2022/09/17 09:49:42;;;;;;;0.85;0.10;;;15.20;99.90;;;;;;5032650;28;20025;-73
2022/09/17 09:53:05;;;;;;;2.55;0.10;;;15.30;99.90;;;;;;5033220;28;20382;-73
2022/09/17 09:56:09;;;;;;;1.48;0.22;;;15.50;99.90;;;;;;4952543;29;20031;-73
2022/09/17 09:58:40;;;;;;;1.95;0.00;;;15.50;99.90;;;;;;4945367;29;20078;-73
2022/09/17 10:01:21;;;;;;;3.45;0.25;;;15.70;99.90;;;;;;4996808;28;20494;-73
2022/09/17 10:03:48;;;;;;;1.30;0.20;;;15.70;99.90;;;;;;5032589;28;20029;-73
2022/09/17 10:06:16;;;;;;;1.13;0.25;;;15.70;99.90;;;;;;5032540;28;20436;-73
2022/09/17 10:09:04;;;;;;;2.17;0.17;;;15.70;99.90;;;;;;5032530;28;20026;-73
2022/09/17 10:11:34;;;;;;;1.75;0.10;;;15.80;99.90;;;;;;5032433;28;20026;-73
2022/09/17 10:14:27;;;;;;;4.03;0.57;;;16.10;99.90;;;;;;5033130;28;20026;-73
2022/09/17 10:17:15;;;;;;;0.88;0.00;;;16.20;99.90;;;;;;5029509;28;20076;-73
2022/09/17 10:19:42;;;;;;;;;;;16.30;99.90;;;;;;5033443;28;20084;-73
2022/09/17 10:22:23;;;;;;;2.63;0.00;;;16.40;99.90;;;;;;5032653;28;19905;-73
2022/09/17 10:24:49;;;;;;;1.80;0.08;;;16.50;99.90;;;;;;5032450;28;20033;-73
2022/09/17 10:27:18;;;;;;;3.90;0.32;;;16.70;99.90;;;;;;5032289;28;20417;-73
2022/09/17 10:29:45;;;;;;;;;;;16.80;99.90;;;;;;5033388;28;20450;-73
2022/09/17 10:32:16;;;;;;;0.80;0.00;;;16.70;99.90;;;;;;5034469;28;20411;-73
2022/09/17 10:34:59;;;;;;;0.13;0.05;;;16.90;99.90;;;;;;5018142;28;20013;-73
2022/09/17 10:37:46;;;;;;;1.10;0.00;;;17.10;99.90;;;;;;5018220;28;20024;-73
2022/09/17 10:40:18;;;;;;;0.30;0.00;;;17.40;99.90;;;;;;5036447;28;20072;-73
2022/09/17 10:43:10;;;;;;;6.22;0.28;;;17.50;99.90;;;;;;5036302;28;20108;-73
2022/09/17 10:45:41;;;;;;;2.17;0.25;;;17.50;99.90;;;;;;5035513;28;20033;-73
2022/09/17 10:48:14;;;;;;;1.85;0.00;;;17.30;99.90;;;;;;5035659;28;20029;-73
2022/09/17 10:50:40;;;;;;;1.75;0.10;;;17.10;99.90;;;;;;5035640;28;20026;-73
2022/09/17 10:53:15;;;;;;;3.83;0.05;;;16.70;99.90;;;;;;5035591;28;20025;-72
2022/09/17 10:55:54;;;;;;;1.48;0.20;;;16.50;99.90;;;;;;5035398;28;20103;-73
2022/09/17 10:58:38;;;;;;;4.25;0.00;;;16.50;99.90;;;;;;5035574;28;20477;-72
2022/09/17 11:01:09;;;;;;;2.67;0.35;;;16.70;99.90;;;;;;5035770;28;20021;-72
2022/09/17 11:03:38;;;;;;;3.70;0.45;;;17.00;99.90;;;;;;5035942;28;20478;-73
2022/09/17 11:06:21;;;;;;;;;;;17.30;99.90;;;;;;5035847;28;20025;-73
2022/09/17 11:08:57;;;;;;;6.07;0.20;;;17.50;99.90;;;;;;5035344;28;20023;-72
2022/09/17 11:11:26;;;;;;;1.42;0.30;;;17.90;99.90;;;;;;5017519;28;20025;-72
2022/09/17 11:14:18;;;;;;;3.78;0.38;;;18.20;99.90;;;;;;5035274;28;20386;-73
2022/09/17 11:17:01;;;;;;;2.92;0.45;;;18.40;99.90;;;;;;5017270;28;20402;-72
2022/09/17 11:19:54;;;;;;;4.82;0.30;;;18.60;99.90;;;;;;5017447;28;20501;-72
2022/09/17 11:22:46;;;;;;;3.60;0.43;;;18.60;99.90;;;;;;5035316;28;20394;-74
2022/09/17 11:25:41;;;;;;;3.90;0.20;;;18.50;99.90;;;;;;5017547;28;20092;-72
2022/09/17 11:28:32;;;;;;;4.93;0.17;;;18.00;99.90;;;;;;5007947;28;20037;-75
2022/09/17 11:31:19;;;;;;;2.47;0.17;;;17.90;99.90;;;;;;5016985;28;20108;-75
2022/09/17 11:33:58;;;;;;;3.40;0.17;;;18.00;99.90;;;;;;5017098;28;20025;-75
2022/09/17 11:36:32;;;;;;;3.53;0.00;;;18.10;99.90;;;;;;5016888;28;20147;-75
2022/09/17 11:39:09;;;;;;;1.95;0.15;;;18.30;99.00;;;;;;5017029;28;20025;-75
2022/09/17 11:41:41;;;;;;;2.78;0.10;;;18.30;97.00;;;;;;5035276;28;20060;-75
2022/09/17 11:44:09;;;;;;;6.40;0.00;;;18.50;94.20;;;;;;5033622;28;20498;-75
2022/09/17 11:46:49;;;;;;;8.73;0.10;;;18.80;92.50;;;;;;5034639;28;20164;-75
2022/09/17 11:49:52;;;;;;;1.48;0.45;;;19.00;93.00;;;;;;5034381;28;20284;-75
2022/09/17 11:52:28;;;;;;;6.22;0.10;;;18.70;93.60;;;;;;5034554;28;20029;-75
2022/09/17 11:55:02;;;;;;;2.38;0.25;;;18.10;95.30;;;;;;5034557;28;20052;-75
2022/09/17 11:57:34;;;;;;;4.63;0.17;;;17.70;96.90;;;;;;5034836;28;20022;-75
2022/09/17 12:00:12;;;;;;;3.33;0.00;;;17.50;97.80;;;;;;5034606;28;20026;-75
2022/09/17 12:02:44;;;;;;;4.93;0.00;;;17.20;96.90;;;;;;5034330;28;20034;-75
2022/09/17 12:05:28;;;;;;;4.97;0.17;;;16.70;98.70;;;;;;5034144;28;20026;-75
2022/09/17 12:08:03;;;;;;;3.50;0.35;;;16.90;99.80;;;;;;5016756;28;20471;-75
2022/09/17 12:10:37;;;;;;;1.65;0.00;;;16.60;99.40;;;;;;5016134;28;20017;-75
2022/09/17 12:13:32;;;;;;;2.38;0.00;;;16.30;99.90;;;;;;5033984;28;20512;-75
2022/09/17 12:16:23;;;;;;;8.27;0.40;;;16.00;99.90;;;;;;5033490;28;20112;-75
2022/09/17 12:19:22;;;;;;;4.15;0.10;;;15.90;99.90;;;;;;5033666;28;20098;-76
2022/09/17 12:21:55;;;;;;;4.10;0.30;;;16.10;99.90;;;;;;5033300;28;20029;-76
2022/09/17 12:24:27;;;;;;;4.22;0.00;;;16.20;99.90;;;;;;5033778;28;20128;-75
2022/09/17 12:27:28;;;;;;;4.60;0.63;;;16.50;99.90;;;;;;5033931;28;20022;-75
2022/09/17 12:30:19;;;;;;;1.27;0.05;;;17.00;99.90;;;;;;5032872;28;20033;-75
2022/09/17 12:32:50;;;;;;;1.60;0.10;;;17.70;99.90;;;;;;5033905;28;20029;-76
2022/09/17 12:36:09;;;;;;;8.07;0.75;;;18.20;99.90;;;;;;5035514;28;20378;-78
2022/09/17 12:39:08;;;;;;;0.47;0.15;;;18.70;98.60;;;;;;4935137;29;20031;-76
2022/09/17 12:42:25;;;;;;;2.50;0.30;;;19.10;96.00;;;;;;5025239;28;20069;-75
2022/09/17 12:45:10;;;;;;;5.20;0.00;;;19.30;96.30;;;;;;4978975;28;20401;-76
2022/09/17 12:48:02;;;;;;;4.07;0.00;;;19.10;94.30;;;;;;5033676;28;20040;-75
2022/09/17 12:50:57;;;;;;;2.10;0.00;;;18.90;95.60;;;;;;5015869;28;20485;-75
2022/09/17 12:53:34;;;;;;;0.40;0.08;;;19.00;95.30;;;;;;5020132;28;20555;-76
2022/09/17 12:56:00;;;;;;;1.23;0.10;;;19.30;96.20;;;;;;5033048;28;20027;-76
2022/09/17 12:59:03;;;;;;;2.17;0.10;;;19.50;93.70;;;;;;5015673;28;20025;-75
2022/09/17 13:01:35;;;;;;;4.15;0.10;;;19.80;90.30;;;;;;5015172;28;20433;-75
2022/09/17 13:04:29;;;;;;;1.17;0.00;;;20.10;90.40;;;;;;5033414;28;20434;-75
2022/09/17 13:07:36;;;;;;;7.53;0.52;;;20.30;90.80;;;;;;5033243;28;20052;-75
2022/09/17 13:10:10;;;;;;;4.03;0.08;;;20.40;86.80;;;;;;5033278;28;20488;-74
2022/09/17 13:13:08;;;;;;;6.72;0.85;;;20.30;86.90;;;;;;5015466;28;20061;-75
2022/09/17 13:15:45;;;;;;;2.92;0.00;;;20.30;85.50;;;;;;4978608;28;20414;-75
2022/09/17 13:18:22;;;;;;;4.75;0.28;;;20.50;87.20;;;;;;5033049;28;20025;-75
2022/09/17 13:20:53;;;;;;;6.70;0.80;;;21.00;85.90;;;;;;5033072;28;20034;-75